sensor_id;sensor_type;location;lat;lon;timestamp;pressure;altitude;pressure_sealevel;temperature;humidity
12785;BME280;6456;42.680;23.260;2023-04-08T00:01:54;94742.59;;;6.57;80.64
12785;BME280;6456;42.680;23.260;2023-04-08T00:04:23;94687.97;;;6.26;80.46
12785;BME280;6456;42.680;23.260;2023-04-08T00:06:50;94732.06;;;6.51;80.19
12785;BME280;6456;42.680;23.260;2023-04-08T00:09:17;94736.50;;;6.50;80.49
12785;BME280;6456;42.680;23.260;2023-04-08T00:11:46;94726.97;;;6.42;80.32
12785;BME280;6456;42.680;23.260;2023-04-08T00:14:13;94666.78;;;6.00;79.84
12785;BME280;6456;42.680;23.260;2023-04-08T00:16:40;94734.06;;;6.34;80.76
12785;BME280;6456;42.680;23.260;2023-04-08T00:19:07;94615.94;;;5.52;81.63
12785;BME280;6456;42.680;23.260;2023-04-08T00:21:34;94667.44;;;5.88;82.81
12785;BME280;6456;42.680;23.260;2023-04-08T00:24:01;94731.66;;;6.32;82.97
12785;BME280;6456;42.680;23.260;2023-04-08T00:26:28;94699.88;;;6.14;82.90
12785;BME280;6456;42.680;23.260;2023-04-08T00:28:56;94731.56;;;6.40;83.06
12785;BME280;6456;42.680;23.260;2023-04-08T00:31:23;94709.31;;;6.30;82.98
12785;BME280;6456;42.680;23.260;2023-04-08T00:33:50;94735.78;;;6.41;83.65
12785;BME280;6456;42.680;23.260;2023-04-08T00:36:17;94656.06;;;5.95;84.04
12785;BME280;6456;42.680;23.260;2023-04-08T00:38:44;94700.88;;;6.28;84.58
12785;BME280;6456;42.680;23.260;2023-04-08T00:41:11;94704.47;;;6.27;85.29
12785;BME280;6456;42.680;23.260;2023-04-08T00:43:38;94668.91;;;6.11;85.71
12785;BME280;6456;42.680;23.260;2023-04-08T00:46:06;94732.63;;;6.46;86.49
12785;BME280;6456;42.680;23.260;2023-04-08T00:48:33;94690.56;;;5.91;88.57
12785;BME280;6456;42.680;23.260;2023-04-08T00:51:00;94724.31;;;6.07;89.85
12785;BME280;6456;42.680;23.260;2023-04-08T00:53:30;94734.34;;;6.03;90.60
12785;BME280;6456;42.680;23.260;2023-04-08T00:55:57;94706.84;;;5.78;90.50
12785;BME280;6456;42.680;23.260;2023-04-08T00:58:26;94677.69;;;5.45;91.07
12785;BME280;6456;42.680;23.260;2023-04-08T01:00:58;94644.00;;;5.21;91.32
12785;BME280;6456;42.680;23.260;2023-04-08T01:03:34;94666.97;;;5.26;91.64
12785;BME280;6456;42.680;23.260;2023-04-08T01:06:11;94679.22;;;5.40;91.21
12785;BME280;6456;42.680;23.260;2023-04-08T01:08:40;94742.84;;;5.82;91.61
12785;BME280;6456;42.680;23.260;2023-04-08T01:11:10;94658.50;;;5.24;92.92
12785;BME280;6456;42.680;23.260;2023-04-08T01:13:39;94663.28;;;5.20;93.63
12785;BME280;6456;42.680;23.260;2023-04-08T01:16:09;94716.03;;;5.59;93.75
12785;BME280;6456;42.680;23.260;2023-04-08T01:18:38;94586.97;;;4.74;93.34
12785;BME280;6456;42.680;23.260;2023-04-08T01:21:06;94621.16;;;4.94;92.16
12785;BME280;6456;42.680;23.260;2023-04-08T01:23:39;94720.16;;;5.54;92.09
12785;BME280;6456;42.680;23.260;2023-04-08T01:26:13;94665.25;;;5.18;91.65
12785;BME280;6456;42.680;23.260;2023-04-08T01:28:48;94725.84;;;5.43;90.77
12785;BME280;6456;42.680;23.260;2023-04-08T01:31:17;94731.75;;;5.51;90.00
12785;BME280;6456;42.680;23.260;2023-04-08T01:33:45;94720.16;;;5.39;89.53
12785;BME280;6456;42.680;23.260;2023-04-08T01:36:13;94742.75;;;5.61;89.39
12785;BME280;6456;42.680;23.260;2023-04-08T01:38:40;94747.47;;;5.66;88.53
12785;BME280;6456;42.680;23.260;2023-04-08T01:41:10;94743.22;;;5.65;88.46
12785;BME280;6456;42.680;23.260;2023-04-08T01:43:38;94745.81;;;5.65;88.79
12785;BME280;6456;42.680;23.260;2023-04-08T01:46:06;94740.06;;;5.55;89.29
12785;BME280;6456;42.680;23.260;2023-04-08T01:48:34;94745.75;;;5.58;89.57
12785;BME280;6456;42.680;23.260;2023-04-08T01:51:03;94717.81;;;5.44;89.27
12785;BME280;6456;42.680;23.260;2023-04-08T01:53:30;94751.25;;;5.78;89.02
12785;BME280;6456;42.680;23.260;2023-04-08T01:56:02;94752.97;;;5.86;88.75
12785;BME280;6456;42.680;23.260;2023-04-08T01:58:36;94753.41;;;5.89;87.66
12785;BME280;6456;42.680;23.260;2023-04-08T02:01:05;94762.19;;;5.96;87.90
12785;BME280;6456;42.680;23.260;2023-04-08T02:03:36;94763.63;;;5.99;88.23
12785;BME280;6456;42.680;23.260;2023-04-08T02:06:04;94768.84;;;5.99;88.22
12785;BME280;6456;42.680;23.260;2023-04-08T02:08:32;94707.84;;;5.62;88.49
12785;BME280;6456;42.680;23.260;2023-04-08T02:10:59;94780.06;;;5.99;88.47
12785;BME280;6456;42.680;23.260;2023-04-08T02:13:27;94757.38;;;5.85;88.56
12785;BME280;6456;42.680;23.260;2023-04-08T02:16:02;94761.09;;;5.91;88.78
12785;BME280;6456;42.680;23.260;2023-04-08T02:18:31;94705.78;;;5.58;88.77
12785;BME280;6456;42.680;23.260;2023-04-08T02:21:04;94780.72;;;6.01;88.61
12785;BME280;6456;42.680;23.260;2023-04-08T02:23:37;94757.94;;;5.95;88.38
12785;BME280;6456;42.680;23.260;2023-04-08T02:26:07;94759.28;;;5.91;87.81
12785;BME280;6456;42.680;23.260;2023-04-08T02:28:38;94781.34;;;6.03;88.03
12785;BME280;6456;42.680;23.260;2023-04-08T02:31:10;94742.41;;;5.79;87.45
12785;BME280;6456;42.680;23.260;2023-04-08T02:33:38;94773.59;;;5.95;87.05
12785;BME280;6456;42.680;23.260;2023-04-08T02:36:06;94766.66;;;5.88;87.10
12785;BME280;6456;42.680;23.260;2023-04-08T02:38:34;94781.84;;;5.84;87.32
12785;BME280;6456;42.680;23.260;2023-04-08T02:41:01;94709.28;;;5.36;87.39
12785;BME280;6456;42.680;23.260;2023-04-08T02:43:28;94720.06;;;5.47;88.27
12785;BME280;6456;42.680;23.260;2023-04-08T02:45:57;94772.56;;;5.81;89.13
12785;BME280;6456;42.680;23.260;2023-04-08T02:48:26;94711.69;;;5.37;88.99
12785;BME280;6456;42.680;23.260;2023-04-08T02:50:53;94691.34;;;5.33;89.51
12785;BME280;6456;42.680;23.260;2023-04-08T02:53:22;94745.81;;;5.65;89.66
12785;BME280;6456;42.680;23.260;2023-04-08T02:55:49;94715.75;;;5.40;90.05
12785;BME280;6456;42.680;23.260;2023-04-08T02:58:16;94704.50;;;5.39;90.29
12785;BME280;6456;42.680;23.260;2023-04-08T03:00:43;94738.97;;;5.64;90.17
12785;BME280;6456;42.680;23.260;2023-04-08T03:03:09;94779.53;;;5.89;89.37
12785;BME280;6456;42.680;23.260;2023-04-08T03:05:38;94774.56;;;5.79;89.54
12785;BME280;6456;42.680;23.260;2023-04-08T03:08:05;94764.69;;;5.90;89.26
12785;BME280;6456;42.680;23.260;2023-04-08T03:10:32;94773.25;;;5.98;88.97
12785;BME280;6456;42.680;23.260;2023-04-08T03:12:59;94713.97;;;5.55;88.88
12785;BME280;6456;42.680;23.260;2023-04-08T03:15:26;94748.75;;;5.85;88.56
12785;BME280;6456;42.680;23.260;2023-04-08T03:17:52;94772.06;;;6.01;88.36
12785;BME280;6456;42.680;23.260;2023-04-08T03:20:19;94767.56;;;5.95;88.38
12785;BME280;6456;42.680;23.260;2023-04-08T03:22:48;94771.81;;;5.96;88.67
12785;BME280;6456;42.680;23.260;2023-04-08T03:25:15;94766.38;;;5.97;88.57
12785;BME280;6456;42.680;23.260;2023-04-08T03:27:41;94772.22;;;5.99;88.91
12785;BME280;6456;42.680;23.260;2023-04-08T03:30:08;94747.88;;;5.84;88.91
12785;BME280;6456;42.680;23.260;2023-04-08T03:32:35;94716.03;;;5.59;88.77
12785;BME280;6456;42.680;23.260;2023-04-08T03:35:03;94762.69;;;5.92;88.91
12785;BME280;6456;42.680;23.260;2023-04-08T03:37:30;94775.75;;;6.06;88.68
12785;BME280;6456;42.680;23.260;2023-04-08T03:39:58;94776.19;;;6.10;88.73
12785;BME280;6456;42.680;23.260;2023-04-08T03:42:25;94779.09;;;6.15;88.77
12785;BME280;6456;42.680;23.260;2023-04-08T03:44:52;94777.09;;;6.17;88.62
12785;BME280;6456;42.680;23.260;2023-04-08T03:47:19;94765.94;;;6.08;88.54
12785;BME280;6456;42.680;23.260;2023-04-08T03:49:45;94774.31;;;6.18;88.26
12785;BME280;6456;42.680;23.260;2023-04-08T03:52:12;94769.34;;;6.09;88.01
12785;BME280;6456;42.680;23.260;2023-04-08T03:54:39;94776.13;;;6.03;88.39
12785;BME280;6456;42.680;23.260;2023-04-08T03:57:07;94746.66;;;5.95;88.34
12785;BME280;6456;42.680;23.260;2023-04-08T03:59:34;94652.31;;;5.25;87.10
12785;BME280;6456;42.680;23.260;2023-04-08T04:02:02;94747.53;;;5.72;87.50
12785;BME280;6456;42.680;23.260;2023-04-08T04:04:28;94710.09;;;5.51;87.77
12785;BME280;6456;42.680;23.260;2023-04-08T04:06:55;94773.41;;;5.97;87.92
12785;BME280;6456;42.680;23.260;2023-04-08T04:09:22;94773.88;;;6.00;88.16
12785;BME280;6456;42.680;23.260;2023-04-08T04:11:49;94772.69;;;6.03;88.85
12785;BME280;6456;42.680;23.260;2023-04-08T04:14:17;94767.28;;;6.04;88.92
12785;BME280;6456;42.680;23.260;2023-04-08T04:16:44;94781.78;;;6.07;88.64
12785;BME280;6456;42.680;23.260;2023-04-08T04:19:10;94760.72;;;5.94;88.75
12785;BME280;6456;42.680;23.260;2023-04-08T04:21:37;94768.84;;;5.99;87.74
12785;BME280;6456;42.680;23.260;2023-04-08T04:24:04;94786.66;;;6.10;87.40
12785;BME280;6456;42.680;23.260;2023-04-08T04:26:31;94788.09;;;6.12;87.09
12785;BME280;6456;42.680;23.260;2023-04-08T04:28:58;94776.41;;;6.08;86.83
12785;BME280;6456;42.680;23.260;2023-04-08T04:31:26;94794.03;;;6.21;86.75
12785;BME280;6456;42.680;23.260;2023-04-08T04:33:54;94792.88;;;6.23;86.75
12785;BME280;6456;42.680;23.260;2023-04-08T04:36:20;94789.25;;;6.24;86.75
12785;BME280;6456;42.680;23.260;2023-04-08T04:38:48;94787.38;;;6.18;86.75
12785;BME280;6456;42.680;23.260;2023-04-08T04:41:15;94792.31;;;6.28;86.95
12785;BME280;6456;42.680;23.260;2023-04-08T04:43:42;94772.78;;;6.09;88.14
12785;BME280;6456;42.680;23.260;2023-04-08T04:46:08;94775.41;;;5.95;88.49
12785;BME280;6456;42.680;23.260;2023-04-08T04:48:36;94751.59;;;5.75;89.02
12785;BME280;6456;42.680;23.260;2023-04-08T04:51:03;94774.00;;;5.84;89.63
12785;BME280;6456;42.680;23.260;2023-04-08T04:53:32;94779.00;;;5.94;90.01
12785;BME280;6456;42.680;23.260;2023-04-08T04:56:00;94799.91;;;6.08;89.41
12785;BME280;6456;42.680;23.260;2023-04-08T04:58:27;94793.13;;;6.14;89.22
12785;BME280;6456;42.680;23.260;2023-04-08T05:00:54;94798.72;;;6.25;88.65
12785;BME280;6456;42.680;23.260;2023-04-08T05:03:21;94797.97;;;6.31;88.19
12785;BME280;6456;42.680;23.260;2023-04-08T05:05:51;94778.44;;;6.27;87.19
12785;BME280;6456;42.680;23.260;2023-04-08T05:08:18;94802.03;;;6.49;86.39
12785;BME280;6456;42.680;23.260;2023-04-08T05:10:45;94804.53;;;6.57;85.70
12785;BME280;6456;42.680;23.260;2023-04-08T05:13:14;94778.94;;;6.52;85.28
12785;BME280;6456;42.680;23.260;2023-04-08T05:15:41;94781.81;;;6.57;85.42
12785;BME280;6456;42.680;23.260;2023-04-08T05:18:08;94788.72;;;6.65;85.02
12785;BME280;6456;42.680;23.260;2023-04-08T05:20:35;94803.84;;;6.84;84.92
12785;BME280;6456;42.680;23.260;2023-04-08T05:23:03;94802.47;;;6.88;84.88
12785;BME280;6456;42.680;23.260;2023-04-08T05:25:30;94788.38;;;6.89;84.49
12785;BME280;6456;42.680;23.260;2023-04-08T05:27:56;94766.97;;;6.79;84.05
12785;BME280;6456;42.680;23.260;2023-04-08T05:30:23;94794.31;;;6.97;83.98
12785;BME280;6456;42.680;23.260;2023-04-08T05:32:50;94810.19;;;7.17;84.12
12785;BME280;6456;42.680;23.260;2023-04-08T05:35:17;94817.13;;;7.25;84.03
12785;BME280;6456;42.680;23.260;2023-04-08T05:37:44;94805.34;;;7.35;82.91
12785;BME280;6456;42.680;23.260;2023-04-08T05:40:12;94805.59;;;7.40;82.81
12785;BME280;6456;42.680;23.260;2023-04-08T05:42:39;94811.03;;;7.39;82.57
12785;BME280;6456;42.680;23.260;2023-04-08T05:45:07;94810.09;;;7.46;82.42
12785;BME280;6456;42.680;23.260;2023-04-08T05:47:34;94805.34;;;7.56;81.74
12785;BME280;6456;42.680;23.260;2023-04-08T05:50:01;94798.47;;;7.55;80.68
12785;BME280;6456;42.680;23.260;2023-04-08T05:52:27;94804.81;;;7.67;80.39
12785;BME280;6456;42.680;23.260;2023-04-08T05:54:54;94814.66;;;7.65;80.46
12785;BME280;6456;42.680;23.260;2023-04-08T05:57:22;94808.47;;;7.73;80.62
12785;BME280;6456;42.680;23.260;2023-04-08T05:59:49;94756.94;;;7.52;80.51
12785;BME280;6456;42.680;23.260;2023-04-08T06:02:17;94782.28;;;7.73;80.05
12785;BME280;6456;42.680;23.260;2023-04-08T06:04:44;94794.09;;;7.90;79.67
12785;BME280;6456;42.680;23.260;2023-04-08T06:07:11;94798.13;;;7.93;79.89
12785;BME280;6456;42.680;23.260;2023-04-08T06:09:38;94796.56;;;7.98;80.06
12785;BME280;6456;42.680;23.260;2023-04-08T06:12:04;94790.50;;;7.98;79.67
12785;BME280;6456;42.680;23.260;2023-04-08T06:14:33;94802.44;;;8.07;79.75
12785;BME280;6456;42.680;23.260;2023-04-08T06:16:59;94797.03;;;8.08;79.50
12785;BME280;6456;42.680;23.260;2023-04-08T06:19:26;94797.44;;;8.12;79.14
12785;BME280;6456;42.680;23.260;2023-04-08T06:21:53;94798.97;;;8.00;81.09
12785;BME280;6456;42.680;23.260;2023-04-08T06:24:23;94796.78;;;8.03;80.52
12785;BME280;6456;42.680;23.260;2023-04-08T06:26:51;94786.09;;;7.98;80.18
12785;BME280;6456;42.680;23.260;2023-04-08T06:29:18;94800.47;;;8.09;79.90
12785;BME280;6456;42.680;23.260;2023-04-08T06:31:47;94771.81;;;8.07;78.93
12785;BME280;6456;42.680;23.260;2023-04-08T06:34:13;94800.00;;;8.26;78.69
12785;BME280;6456;42.680;23.260;2023-04-08T06:36:40;94791.34;;;8.32;78.09
12785;BME280;6456;42.680;23.260;2023-04-08T06:39:07;94795.69;;;8.53;76.43
12785;BME280;6456;42.680;23.260;2023-04-08T06:41:34;94786.41;;;8.57;75.32
12785;BME280;6456;42.680;23.260;2023-04-08T06:44:01;94803.03;;;8.77;75.21
12785;BME280;6456;42.680;23.260;2023-04-08T06:46:27;94806.13;;;8.94;74.99
12785;BME280;6456;42.680;23.260;2023-04-08T06:48:56;94811.00;;;9.10;74.36
12785;BME280;6456;42.680;23.260;2023-04-08T06:51:22;94805.97;;;9.22;73.63
12785;BME280;6456;42.680;23.260;2023-04-08T06:53:50;94812.88;;;9.29;71.28
12785;BME280;6456;42.680;23.260;2023-04-08T06:56:16;94799.94;;;9.34;70.53
12785;BME280;6456;42.680;23.260;2023-04-08T06:58:45;94808.22;;;9.38;70.10
12785;BME280;6456;42.680;23.260;2023-04-08T07:01:12;94800.16;;;9.39;68.78
12785;BME280;6456;42.680;23.260;2023-04-08T07:03:40;94809.25;;;9.43;68.44
12785;BME280;6456;42.680;23.260;2023-04-08T07:06:08;94792.66;;;9.43;68.83
12785;BME280;6456;42.680;23.260;2023-04-08T07:08:35;94799.13;;;9.53;68.83
12785;BME280;6456;42.680;23.260;2023-04-08T07:11:03;94799.13;;;9.60;69.20
12785;BME280;6456;42.680;23.260;2023-04-08T07:13:30;94811.66;;;9.78;69.22
12785;BME280;6456;42.680;23.260;2023-04-08T07:15:56;94806.00;;;9.87;68.70
12785;BME280;6456;42.680;23.260;2023-04-08T07:18:23;94796.09;;;9.83;68.21
12785;BME280;6456;42.680;23.260;2023-04-08T07:20:50;94819.34;;;9.92;68.30
12785;BME280;6456;42.680;23.260;2023-04-08T07:23:19;94810.06;;;9.77;68.56
12785;BME280;6456;42.680;23.260;2023-04-08T07:25:46;94774.28;;;9.56;68.28
12785;BME280;6456;42.680;23.260;2023-04-08T07:28:13;94775.88;;;9.57;67.93
12785;BME280;6456;42.680;23.260;2023-04-08T07:30:40;94817.94;;;9.83;67.82
12785;BME280;6456;42.680;23.260;2023-04-08T07:33:06;94817.53;;;9.86;67.03
12785;BME280;6456;42.680;23.260;2023-04-08T07:35:33;94810.88;;;9.84;67.00
12785;BME280;6456;42.680;23.260;2023-04-08T07:38:00;94825.59;;;9.98;67.45
12785;BME280;6456;42.680;23.260;2023-04-08T07:40:28;94824.78;;;10.10;68.25
12785;BME280;6456;42.680;23.260;2023-04-08T07:42:55;94814.91;;;10.12;67.53
12785;BME280;6456;42.680;23.260;2023-04-08T07:45:22;94821.56;;;10.21;67.37
12785;BME280;6456;42.680;23.260;2023-04-08T07:47:49;94831.03;;;10.36;66.76
12785;BME280;6456;42.680;23.260;2023-04-08T07:50:18;94808.44;;;10.21;66.52
12785;BME280;6456;42.680;23.260;2023-04-08T07:52:45;94832.66;;;10.43;66.66
12785;BME280;6456;42.680;23.260;2023-04-08T07:55:12;94838.72;;;10.44;65.84
12785;BME280;6456;42.680;23.260;2023-04-08T07:57:40;94848.47;;;10.37;66.31
12785;BME280;6456;42.680;23.260;2023-04-08T08:00:08;94828.25;;;9.91;66.84
12785;BME280;6456;42.680;23.260;2023-04-08T08:02:35;94832.88;;;10.02;67.03
12785;BME280;6456;42.680;23.260;2023-04-08T08:05:01;94831.88;;;9.90;67.38
12785;BME280;6456;42.680;23.260;2023-04-08T08:07:28;94842.81;;;9.81;68.19
12785;BME280;6456;42.680;23.260;2023-04-08T08:09:55;94795.50;;;9.48;69.22
12785;BME280;6456;42.680;23.260;2023-04-08T08:12:22;94809.03;;;9.64;69.50
12785;BME280;6456;42.680;23.260;2023-04-08T08:14:50;94838.38;;;9.94;69.56
12785;BME280;6456;42.680;23.260;2023-04-08T08:17:19;94824.59;;;9.86;69.23
12785;BME280;6456;42.680;23.260;2023-04-08T08:19:46;94812.66;;;10.09;68.08
12785;BME280;6456;42.680;23.260;2023-04-08T08:22:12;94845.78;;;10.50;67.58
12785;BME280;6456;42.680;23.260;2023-04-08T08:24:39;94849.63;;;10.54;67.25
12785;BME280;6456;42.680;23.260;2023-04-08T08:27:09;94845.53;;;10.71;67.16
12785;BME280;6456;42.680;23.260;2023-04-08T08:29:36;94850.16;;;10.82;66.94
12785;BME280;6456;42.680;23.260;2023-04-08T08:32:04;94845.63;;;11.02;67.00
12785;BME280;6456;42.680;23.260;2023-04-08T08:34:31;94846.56;;;11.14;66.56
12785;BME280;6456;42.680;23.260;2023-04-08T08:36:57;94843.91;;;11.21;64.91
12785;BME280;6456;42.680;23.260;2023-04-08T08:39:24;94839.78;;;11.31;65.65
12785;BME280;6456;42.680;23.260;2023-04-08T08:41:51;94826.06;;;11.23;65.87
12785;BME280;6456;42.680;23.260;2023-04-08T08:44:18;94763.72;;;10.79;65.50
12785;BME280;6456;42.680;23.260;2023-04-08T08:46:46;94832.00;;;11.49;64.76
12785;BME280;6456;42.680;23.260;2023-04-08T08:49:14;94845.75;;;11.83;63.70
12785;BME280;6456;42.680;23.260;2023-04-08T08:51:42;94809.88;;;11.82;63.63
12785;BME280;6456;42.680;23.260;2023-04-08T08:54:11;94844.16;;;12.06;63.16
12785;BME280;6456;42.680;23.260;2023-04-08T08:56:38;94854.91;;;12.05;62.50
12785;BME280;6456;42.680;23.260;2023-04-08T08:59:07;94849.38;;;11.88;63.36
12785;BME280;6456;42.680;23.260;2023-04-08T09:01:35;94845.13;;;11.87;63.62
12785;BME280;6456;42.680;23.260;2023-04-08T09:04:06;94830.84;;;11.70;63.23
12785;BME280;6456;42.680;23.260;2023-04-08T09:06:35;94819.06;;;11.73;63.18
12785;BME280;6456;42.680;23.260;2023-04-08T09:09:02;94835.53;;;11.93;63.11
12785;BME280;6456;42.680;23.260;2023-04-08T09:11:30;94844.53;;;12.35;62.98
12785;BME280;6456;42.680;23.260;2023-04-08T09:13:57;94847.00;;;12.30;61.94
12785;BME280;6456;42.680;23.260;2023-04-08T09:16:24;94847.00;;;12.30;63.85
12785;BME280;6456;42.680;23.260;2023-04-08T09:18:51;94831.47;;;12.40;61.58
12785;BME280;6456;42.680;23.260;2023-04-08T09:21:21;94848.28;;;12.63;60.08
12785;BME280;6456;42.680;23.260;2023-04-08T09:23:50;94839.22;;;12.77;59.98
12785;BME280;6456;42.680;23.260;2023-04-08T09:26:19;94831.63;;;12.99;59.24
12785;BME280;6456;42.680;23.260;2023-04-08T09:28:57;94826.41;;;13.29;58.33
12785;BME280;6456;42.680;23.260;2023-04-08T09:31:25;94828.63;;;13.43;57.64
12785;BME280;6456;42.680;23.260;2023-04-08T09:33:54;94831.59;;;13.35;57.69
12785;BME280;6456;42.680;23.260;2023-04-08T09:36:21;94824.31;;;13.31;56.98
12785;BME280;6456;42.680;23.260;2023-04-08T09:38:49;94799.31;;;13.15;57.42
12785;BME280;6456;42.680;23.260;2023-04-08T09:41:17;94819.47;;;12.80;58.70
12785;BME280;6456;42.680;23.260;2023-04-08T09:43:47;94822.75;;;12.94;59.77
12785;BME280;6456;42.680;23.260;2023-04-08T09:46:16;94807.00;;;12.69;58.46
12785;BME280;6456;42.680;23.260;2023-04-08T09:48:49;94818.38;;;12.69;58.90
12785;BME280;6456;42.680;23.260;2023-04-08T09:51:22;94817.75;;;12.85;58.00
12785;BME280;6456;42.680;23.260;2023-04-08T09:53:58;94807.53;;;12.77;58.58
12785;BME280;6456;42.680;23.260;2023-04-08T09:56:30;94816.59;;;12.63;58.31
12785;BME280;6456;42.680;23.260;2023-04-08T09:59:05;94814.09;;;12.50;58.23
12785;BME280;6456;42.680;23.260;2023-04-08T10:01:37;94808.09;;;12.43;59.08
12785;BME280;6456;42.680;23.260;2023-04-08T10:04:09;94800.28;;;12.30;58.86
12785;BME280;6456;42.680;23.260;2023-04-08T10:06:39;94801.63;;;12.21;59.89
12785;BME280;6456;42.680;23.260;2023-04-08T10:09:08;94797.59;;;12.18;59.26
12785;BME280;6456;42.680;23.260;2023-04-08T10:11:35;94803.81;;;12.24;61.52
12785;BME280;6456;42.680;23.260;2023-04-08T10:14:02;94796.75;;;12.18;61.94
12785;BME280;6456;42.680;23.260;2023-04-08T10:16:29;94772.56;;;12.03;60.78
12785;BME280;6456;42.680;23.260;2023-04-08T10:18:56;94797.59;;;12.37;59.91
12785;BME280;6456;42.680;23.260;2023-04-08T10:21:35;94779.88;;;12.44;59.98
12785;BME280;6456;42.680;23.260;2023-04-08T10:24:06;94772.63;;;12.39;60.13
12785;BME280;6456;42.680;23.260;2023-04-08T10:26:36;94789.25;;;12.58;60.84
12785;BME280;6456;42.680;23.260;2023-04-08T10:29:30;94783.63;;;12.72;59.82
12785;BME280;6456;42.680;23.260;2023-04-08T10:31:57;94786.22;;;12.91;59.17
12785;BME280;6456;42.680;23.260;2023-04-08T10:34:25;94787.34;;;13.31;59.93
12785;BME280;6456;42.680;23.260;2023-04-08T10:36:54;94777.84;;;13.41;59.44
12785;BME280;6456;42.680;23.260;2023-04-08T10:39:21;94748.25;;;13.21;57.29
12785;BME280;6456;42.680;23.260;2023-04-08T10:41:50;94772.00;;;13.51;57.26
12785;BME280;6456;42.680;23.260;2023-04-08T10:44:17;94770.66;;;13.60;58.24
12785;BME280;6456;42.680;23.260;2023-04-08T10:46:44;94767.50;;;13.40;56.54
12785;BME280;6456;42.680;23.260;2023-04-08T10:49:11;94767.88;;;13.25;56.22
12785;BME280;6456;42.680;23.260;2023-04-08T10:51:38;94748.94;;;13.17;57.22
12785;BME280;6456;42.680;23.260;2023-04-08T10:54:06;94761.44;;;13.21;57.14
12785;BME280;6456;42.680;23.260;2023-04-08T10:56:33;94749.63;;;13.24;56.85
12785;BME280;6456;42.680;23.260;2023-04-08T10:59:02;94761.44;;;13.21;57.32
12785;BME280;6456;42.680;23.260;2023-04-08T11:01:37;94755.19;;;13.34;57.84
12785;BME280;6456;42.680;23.260;2023-04-08T11:04:12;94759.34;;;13.53;57.54
12785;BME280;6456;42.680;23.260;2023-04-08T11:06:41;94733.34;;;13.38;56.27
12785;BME280;6456;42.680;23.260;2023-04-08T11:09:08;94751.41;;;13.53;55.95
12785;BME280;6456;42.680;23.260;2023-04-08T11:11:35;94750.88;;;13.74;57.36
12785;BME280;6456;42.680;23.260;2023-04-08T11:14:05;94747.09;;;13.93;55.30
12785;BME280;6456;42.680;23.260;2023-04-08T11:16:33;94727.09;;;13.74;54.96
12785;BME280;6456;42.680;23.260;2023-04-08T11:19:02;94731.81;;;13.72;55.01
12785;BME280;6456;42.680;23.260;2023-04-08T11:21:29;94695.56;;;13.61;56.10
12785;BME280;6456;42.680;23.260;2023-04-08T11:23:56;94724.19;;;14.10;56.29
12785;BME280;6456;42.680;23.260;2023-04-08T11:26:24;94726.97;;;14.15;54.71
12785;BME280;6456;42.680;23.260;2023-04-08T11:28:52;94732.84;;;14.06;53.83
12785;BME280;6456;42.680;23.260;2023-04-08T11:31:21;94714.44;;;13.99;53.84
12785;BME280;6456;42.680;23.260;2023-04-08T11:33:53;94704.53;;;14.06;54.16
12785;BME280;6456;42.680;23.260;2023-04-08T11:36:20;94711.56;;;13.89;53.06
12785;BME280;6456;42.680;23.260;2023-04-08T11:38:47;94687.75;;;13.66;53.35
12785;BME280;6456;42.680;23.260;2023-04-08T11:41:14;94712.38;;;14.01;53.10
12785;BME280;6456;42.680;23.260;2023-04-08T11:43:52;94677.28;;;13.94;52.06
12785;BME280;6456;42.680;23.260;2023-04-08T11:46:19;94647.28;;;13.77;51.34
12785;BME280;6456;42.680;23.260;2023-04-08T11:49:02;94605.34;;;13.69;51.27
12785;BME280;6456;42.680;23.260;2023-04-08T11:51:29;94698.91;;;14.66;51.50
12785;BME280;6456;42.680;23.260;2023-04-08T11:53:56;94614.88;;;14.22;50.26
12785;BME280;6456;42.680;23.260;2023-04-08T11:56:23;94699.97;;;14.65;49.29
12785;BME280;6456;42.680;23.260;2023-04-08T11:58:51;94694.38;;;14.78;49.21
12785;BME280;6456;42.680;23.260;2023-04-08T12:01:18;94691.38;;;14.58;48.08
12785;BME280;6456;42.680;23.260;2023-04-08T12:04:00;94692.19;;;14.47;49.54
12785;BME280;6456;42.680;23.260;2023-04-08T12:06:27;94687.50;;;14.37;49.02
12785;BME280;6456;42.680;23.260;2023-04-08T12:08:56;94659.31;;;14.20;49.20
12785;BME280;6456;42.680;23.260;2023-04-08T12:11:23;94649.44;;;14.15;48.76
12785;BME280;6456;42.680;23.260;2023-04-08T12:13:50;94645.97;;;14.03;49.03
12785;BME280;6456;42.680;23.260;2023-04-08T12:16:18;94684.75;;;14.32;50.23
12785;BME280;6456;42.680;23.260;2023-04-08T12:18:45;94652.91;;;13.92;48.86
12785;BME280;6456;42.680;23.260;2023-04-08T12:21:13;94656.69;;;13.96;49.42
12785;BME280;6456;42.680;23.260;2023-04-08T12:23:40;94659.56;;;13.83;51.26
12785;BME280;6456;42.680;23.260;2023-04-08T12:26:08;94676.69;;;14.04;50.54
12785;BME280;6456;42.680;23.260;2023-04-08T12:28:36;94624.31;;;13.55;49.94
12785;BME280;6456;42.680;23.260;2023-04-08T12:31:03;94662.25;;;13.72;50.77
12785;BME280;6456;42.680;23.260;2023-04-08T12:33:30;94620.16;;;13.35;51.40
12785;BME280;6456;42.680;23.260;2023-04-08T12:35:57;94654.31;;;13.37;51.26
12785;BME280;6456;42.680;23.260;2023-04-08T12:38:26;94653.69;;;13.23;53.06
12785;BME280;6456;42.680;23.260;2023-04-08T12:40:53;94664.41;;;13.52;53.58
12785;BME280;6456;42.680;23.260;2023-04-08T12:43:20;94663.16;;;13.54;52.86
12785;BME280;6456;42.680;23.260;2023-04-08T12:45:48;94653.94;;;13.33;52.91
12785;BME280;6456;42.680;23.260;2023-04-08T12:48:15;94661.06;;;13.21;53.21
12785;BME280;6456;42.680;23.260;2023-04-08T12:50:41;94668.16;;;13.09;54.33
12785;BME280;6456;42.680;23.260;2023-04-08T12:53:08;94664.53;;;13.04;54.97
12785;BME280;6456;42.680;23.260;2023-04-08T12:55:37;94687.47;;;13.21;54.34
12785;BME280;6456;42.680;23.260;2023-04-08T12:58:03;94685.16;;;13.13;54.18
12785;BME280;6456;42.680;23.260;2023-04-08T13:00:31;94685.41;;;13.23;55.74
12785;BME280;6456;42.680;23.260;2023-04-08T13:02:57;94659.47;;;13.32;61.89
12785;BME280;6456;42.680;23.260;2023-04-08T13:05:24;94691.72;;;12.93;63.86
12785;BME280;6456;42.680;23.260;2023-04-08T13:07:51;94686.78;;;12.84;62.56
12785;BME280;6456;42.680;23.260;2023-04-08T13:10:18;94673.03;;;13.06;65.29
12785;BME280;6456;42.680;23.260;2023-04-08T13:12:46;94666.53;;;13.08;62.58